Time;durP1;ratioP1;P1;durP2;ratioP2;P2;SDS_P1;SDS_P2;PMS_P1;PMS_P2;Temp;Humidity;BMP_temperature;BMP_pressure;BME280_temperature;BME280_humidity;BME280_pressure;Samples;Min_cycle;Max_cycle;Signal;HPM_P1;HPM_P2
2022/06/01 00:01:36;;;;;;;12.73;8.17;;;10.50;97.30;;;;;;5020111;28;20422;-82
2022/06/01 00:04:02;;;;;;;11.83;8.10;;;10.40;97.30;;;;;;5020817;28;20169;-82
2022/06/01 00:06:28;;;;;;;12.70;8.17;;;10.40;97.30;;;;;;5020402;28;20699;-82
2022/06/01 00:08:53;;;;;;;16.27;9.00;;;10.30;97.30;;;;;;5020676;28;20177;-82
2022/06/01 00:11:19;;;;;;;15.77;9.40;;;10.30;97.30;;;;;;5038551;28;20333;-82
2022/06/01 00:13:45;;;;;;;13.43;8.93;;;10.20;97.30;;;;;;5020107;28;20180;-82
2022/06/01 00:16:11;;;;;;;15.50;9.33;;;10.20;97.30;;;;;;5019766;28;20287;-82
2022/06/01 00:18:37;;;;;;;18.53;10.63;;;10.20;97.30;;;;;;5020475;28;20516;-82
2022/06/01 00:21:04;;;;;;;15.07;9.77;;;10.10;97.30;;;;;;5019853;28;20924;-82
2022/06/01 00:23:30;;;;;;;15.30;9.27;;;10.10;97.30;;;;;;5038098;28;20432;-82
2022/06/01 00:25:58;;;;;;;14.90;9.83;;;10.20;97.30;;;;;;5020324;28;20535;-82
2022/06/01 00:28:24;;;;;;;15.17;10.13;;;10.20;97.30;;;;;;5020528;28;20948;-82
2022/06/01 00:30:50;;;;;;;18.00;10.20;;;10.30;97.30;;;;;;5019678;28;20939;-82
2022/06/01 00:33:15;;;;;;;15.60;10.47;;;10.30;97.30;;;;;;5038561;28;20438;-83
2022/06/01 00:35:41;;;;;;;15.67;9.30;;;10.30;97.30;;;;;;5018968;28;20208;-82
2022/06/01 00:38:07;;;;;;;12.33;8.30;;;10.30;97.30;;;;;;5020089;28;20252;-82
2022/06/01 00:40:33;;;;;;;13.47;9.63;;;10.40;97.30;;;;;;5020887;28;20187;-82
2022/06/01 00:43:15;;;;;;;14.43;9.30;;;10.40;97.30;;;;;;5020818;28;20471;-82
2022/06/01 00:45:41;;;;;;;14.43;9.40;;;10.30;97.30;;;;;;5020100;28;20204;-82
2022/06/01 00:48:07;;;;;;;11.87;7.83;;;10.30;97.30;;;;;;5020800;28;20979;-82
2022/06/01 00:50:36;;;;;;;12.60;8.70;;;10.30;97.30;;;;;;5020321;28;20187;-82
2022/06/01 00:53:14;;;;;;;14.77;9.93;;;10.20;97.30;;;;;;5020685;28;20204;-82
2022/06/01 00:55:44;;;;;;;15.43;9.80;;;10.20;97.30;;;;;;5019968;28;20503;-82
2022/06/01 00:58:16;;;;;;;14.63;10.03;;;10.30;97.30;;;;;;5020806;28;20451;-82
2022/06/01 01:00:42;;;;;;;14.20;9.70;;;10.30;97.30;;;;;;5021059;28;20434;-82
2022/06/01 01:03:10;;;;;;;12.90;9.40;;;10.20;97.30;;;;;;5020307;28;20423;-82
2022/06/01 01:05:40;;;;;;;13.43;8.90;;;10.20;97.30;;;;;;5020228;28;20412;-82
2022/06/01 01:08:06;;;;;;;15.60;9.57;;;10.20;97.30;;;;;;5020612;28;20424;-82
2022/06/01 01:10:33;;;;;;;16.80;9.93;;;10.10;97.30;;;;;;5020114;28;20514;-82
2022/06/01 01:13:04;;;;;;;13.63;9.30;;;10.10;97.30;;;;;;5019750;28;20181;-82
2022/06/01 01:15:40;;;;;;;14.10;9.43;;;10.10;97.30;;;;;;5019616;28;20445;-82
2022/06/01 01:18:13;;;;;;;11.97;8.40;;;10.00;97.30;;;;;;5020318;28;20454;-82
2022/06/01 01:20:54;;;;;;;20.87;9.00;;;10.00;97.30;;;;;;5019726;28;20427;-82
2022/06/01 01:23:31;;;;;;;14.63;9.20;;;10.00;97.30;;;;;;5020020;28;20408;-82
2022/06/01 01:25:57;;;;;;;12.30;8.63;;;10.00;97.30;;;;;;5019554;28;21080;-82
2022/06/01 01:28:22;;;;;;;15.20;9.83;;;10.00;97.30;;;;;;5020238;28;20419;-82
2022/06/01 01:31:02;;;;;;;13.53;10.60;;;9.90;97.30;;;;;;5019964;28;20571;-82
2022/06/01 01:33:29;;;;;;;16.00;7.63;;;9.90;97.30;;;;;;5019906;28;20523;-82
2022/06/01 01:36:01;;;;;;;10.87;7.83;;;9.90;97.30;;;;;;5020090;28;20439;-82
2022/06/01 01:38:45;;;;;;;13.03;7.53;;;9.90;97.30;;;;;;5020028;28;21003;-82
2022/06/01 01:41:23;;;;;;;12.03;7.83;;;9.80;97.30;;;;;;5019919;28;20462;-82
2022/06/01 01:43:57;;;;;;;8.90;6.30;;;9.80;97.30;;;;;;5020439;28;20414;-82
2022/06/01 01:46:23;;;;;;;6.87;4.43;;;9.80;97.30;;;;;;5019081;28;20457;-82
2022/06/01 01:48:49;;;;;;;8.70;5.73;;;9.70;97.30;;;;;;5020287;28;20426;-81
2022/06/01 01:51:20;;;;;;;8.17;5.83;;;9.70;97.30;;;;;;5019537;28;20789;-82
2022/06/01 01:53:45;;;;;;;12.00;8.03;;;9.60;97.30;;;;;;5019049;28;20592;-82
2022/06/01 01:56:22;;;;;;;11.90;8.53;;;9.60;97.30;;;;;;5036746;28;20582;-82
2022/06/01 01:59:13;;;;;;;9.03;5.30;;;9.50;97.30;;;;;;5019334;28;20623;-82
2022/06/01 02:01:59;;;;;;;7.40;4.13;;;9.50;97.30;;;;;;5018953;28;20518;-82
2022/06/01 02:08:47;;;;;;;4.53;4.27;;;9.40;97.30;;;;;;5035282;28;20801;-79
2022/06/01 02:14:42;;;;;;;11.50;6.67;;;9.30;97.30;;;;;;4992135;28;20427;-79
2022/06/01 02:17:14;;;;;;;15.00;7.83;;;9.30;97.30;;;;;;5016178;28;20447;-79
2022/06/01 02:19:57;;;;;;;15.00;8.90;;;9.30;97.30;;;;;;5016488;28;20411;-79
2022/06/01 02:22:23;;;;;;;10.97;7.60;;;9.30;97.30;;;;;;5016664;28;20411;-79
2022/06/01 02:24:49;;;;;;;10.20;7.60;;;9.30;97.30;;;;;;5016389;28;20406;-79
2022/06/01 02:27:16;;;;;;;8.80;5.20;;;9.20;97.30;;;;;;5015982;28;20184;-79
2022/06/01 02:29:53;;;;;;;7.47;5.17;;;9.20;97.30;;;;;;5016691;28;20460;-79
2022/06/01 02:32:19;;;;;;;9.80;6.37;;;9.20;97.30;;;;;;5016182;28;20418;-79
2022/06/01 02:34:46;;;;;;;8.73;6.80;;;9.20;97.30;;;;;;5016083;28;20937;-79
2022/06/01 02:37:14;;;;;;;8.80;6.30;;;9.20;97.30;;;;;;5015845;28;20510;-79
2022/06/01 02:39:43;;;;;;;9.57;7.07;;;9.20;97.30;;;;;;5016060;28;20505;-79
2022/06/01 02:42:25;;;;;;;10.70;7.57;;;9.10;97.30;;;;;;5033456;28;20421;-79
2022/06/01 02:45:05;;;;;;;10.80;7.17;;;9.10;97.30;;;;;;5033859;28;20490;-79
2022/06/01 02:47:33;;;;;;;14.80;7.60;;;9.10;97.30;;;;;;5015455;28;20439;-79
2022/06/01 02:49:59;;;;;;;13.27;8.97;;;9.00;97.30;;;;;;5032704;28;20479;-79
2022/06/01 02:52:27;;;;;;;11.90;7.30;;;9.00;97.30;;;;;;5015434;28;20421;-79
2022/06/01 02:54:53;;;;;;;14.20;8.13;;;9.00;97.30;;;;;;5015351;28;20497;-79
2022/06/01 02:57:19;;;;;;;10.43;7.93;;;9.00;97.30;;;;;;5033587;28;20431;-79
2022/06/01 02:59:44;;;;;;;12.83;6.80;;;8.90;97.30;;;;;;5019704;28;20426;-79
2022/06/01 03:02:10;;;;;;;12.50;8.10;;;8.90;97.30;;;;;;5018807;28;20423;-78
2022/06/01 03:04:38;;;;;;;13.77;8.37;;;8.90;97.30;;;;;;5018734;28;20279;-79
2022/06/01 03:07:04;;;;;;;13.60;8.70;;;8.90;97.30;;;;;;5019040;28;20929;-78
2022/06/01 03:09:30;;;;;;;13.67;8.90;;;8.90;97.30;;;;;;5018836;28;20420;-79
2022/06/01 03:11:56;;;;;;;13.23;8.27;;;8.90;97.30;;;;;;5018798;28;20506;-78
2022/06/01 03:14:22;;;;;;;15.37;8.70;;;8.90;97.30;;;;;;5019458;28;20454;-79
2022/06/01 03:16:47;;;;;;;11.83;8.47;;;8.90;97.30;;;;;;5018802;28;20200;-79
2022/06/01 03:19:13;;;;;;;11.97;8.50;;;8.90;97.30;;;;;;5018737;28;20219;-79
2022/06/01 03:21:40;;;;;;;15.30;9.10;;;8.90;97.30;;;;;;5036293;28;20173;-79
2022/06/01 03:24:06;;;;;;;23.33;8.17;;;8.80;97.30;;;;;;5018722;28;20177;-79
2022/06/01 03:26:32;;;;;;;13.03;7.53;;;8.90;97.30;;;;;;5018644;28;20604;-78
2022/06/01 03:28:57;;;;;;;15.17;7.27;;;8.90;97.30;;;;;;5019648;28;20438;-78
2022/06/01 03:31:23;;;;;;;11.60;7.23;;;8.90;97.30;;;;;;5018961;28;20437;-79
2022/06/01 03:33:48;;;;;;;10.40;5.87;;;8.90;97.30;;;;;;5037084;28;20187;-78
2022/06/01 03:36:15;;;;;;;14.53;9.13;;;8.90;97.30;;;;;;5018621;28;20224;-79
2022/06/01 03:38:41;;;;;;;14.50;8.63;;;8.80;97.30;;;;;;5018935;28;20222;-79
2022/06/01 03:41:07;;;;;;;25.43;10.10;;;8.80;97.30;;;;;;5018644;28;20451;-78
2022/06/01 03:45:55;;;;;;;18.60;10.27;;;8.80;97.30;;;;;;5018823;28;20419;-79
2022/06/01 03:46:18;;;;;;;15.20;10.00;;;8.80;97.30;;;;;;5036141;28;20433;-79
2022/06/01 03:48:45;;;;;;;20.20;10.50;;;8.80;97.30;;;;;;5018287;28;20435;-80
2022/06/01 03:51:14;;;;;;;19.10;11.20;;;8.80;97.30;;;;;;5018794;28;20560;-79
2022/06/01 03:53:39;;;;;;;18.30;10.70;;;8.90;97.30;;;;;;5037166;28;20443;-79
2022/06/01 03:56:08;;;;;;;20.40;12.43;;;8.90;97.30;;;;;;5035962;28;20438;-79
2022/06/01 03:58:35;;;;;;;18.80;11.40;;;8.90;97.30;;;;;;5018941;28;20291;-79
2022/06/01 04:01:06;;;;;;;21.23;11.80;;;9.00;97.30;;;;;;5018571;28;20419;-79
2022/06/01 04:03:34;;;;;;;15.33;10.90;;;9.00;97.30;;;;;;5018234;28;20411;-79
2022/06/01 04:06:00;;;;;;;20.50;11.83;;;9.10;97.30;;;;;;5018437;28;20729;-79
2022/06/01 04:08:26;;;;;;;19.13;11.40;;;9.10;97.30;;;;;;5018047;28;20423;-79
2022/06/01 04:10:53;;;;;;;16.83;9.93;;;9.10;97.30;;;;;;5018806;28;20947;-79
2022/06/01 04:13:18;;;;;;;19.03;11.30;;;9.20;97.30;;;;;;5018022;28;20244;-79
2022/06/01 04:15:44;;;;;;;17.40;10.87;;;9.20;97.30;;;;;;5017993;28;20490;-79
2022/06/01 04:18:10;;;;;;;22.40;12.30;;;9.30;97.30;;;;;;5018250;28;20693;-79
2022/06/01 04:20:36;;;;;;;23.70;12.83;;;9.30;97.30;;;;;;5018081;28;20657;-79
2022/06/01 04:23:03;;;;;;;23.63;13.70;;;9.30;97.30;;;;;;5017966;28;20634;-78
2022/06/01 04:25:29;;;;;;;22.80;12.80;;;9.30;97.30;;;;;;5018195;28;20432;-80
2022/06/01 04:27:55;;;;;;;21.30;12.60;;;9.40;97.30;;;;;;5017374;28;20461;-79
2022/06/01 04:30:21;;;;;;;23.10;13.50;;;9.40;97.30;;;;;;5017161;28;20415;-79
2022/06/01 04:32:50;;;;;;;22.20;13.67;;;9.40;97.30;;;;;;5017648;28;20180;-79
2022/06/01 04:35:17;;;;;;;21.47;13.57;;;9.40;97.30;;;;;;5017553;28;20245;-79
2022/06/01 04:37:43;;;;;;;24.57;13.70;;;9.40;97.30;;;;;;5035523;28;20506;-79
2022/06/01 04:40:10;;;;;;;24.60;13.97;;;9.40;97.30;;;;;;5017578;28;20410;-79
2022/06/01 04:42:39;;;;;;;25.13;15.13;;;9.50;97.30;;;;;;5017892;28;20514;-79
2022/06/01 04:45:06;;;;;;;32.87;16.83;;;9.50;97.30;;;;;;5017319;28;20419;-79
2022/06/01 04:47:33;;;;;;;30.30;16.53;;;9.60;97.30;;;;;;5017459;28;20446;-79
2022/06/01 04:49:58;;;;;;;34.47;16.70;;;9.60;97.30;;;;;;5017144;28;20423;-78
2022/06/01 04:52:24;;;;;;;27.07;15.20;;;9.70;97.30;;;;;;5017852;28;20423;-79
2022/06/01 04:54:51;;;;;;;33.50;15.07;;;9.80;97.30;;;;;;5017346;28;20224;-79
2022/06/01 04:57:17;;;;;;;31.20;14.60;;;9.80;97.30;;;;;;5016804;28;20506;-79
2022/06/01 04:59:44;;;;;;;31.70;15.60;;;9.90;97.30;;;;;;5018199;28;20466;-79
2022/06/01 05:02:10;;;;;;;26.00;15.10;;;9.90;97.30;;;;;;5017374;28;20181;-79
2022/06/01 05:04:36;;;;;;;29.40;15.80;;;10.00;97.30;;;;;;5017877;28;20426;-79
2022/06/01 05:07:02;;;;;;;30.90;16.60;;;10.00;97.30;;;;;;5017247;28;20243;-79
2022/06/01 05:09:28;;;;;;;25.90;15.07;;;10.00;97.30;;;;;;5017168;28;20176;-79
2022/06/01 05:11:54;;;;;;;26.80;13.97;;;10.00;97.30;;;;;;5017353;28;20469;-79
2022/06/01 05:14:20;;;;;;;27.03;14.37;;;10.00;97.30;;;;;;5017390;28;20234;-79
2022/06/01 05:16:45;;;;;;;27.60;14.00;;;10.10;97.30;;;;;;5017102;28;20472;-79
2022/06/01 05:19:13;;;;;;;24.47;13.73;;;10.10;97.30;;;;;;5018100;28;20407;-79
2022/06/01 05:21:39;;;;;;;27.20;15.13;;;10.20;97.30;;;;;;5016848;28;20227;-79
2022/06/01 05:24:05;;;;;;;22.90;13.73;;;10.20;97.30;;;;;;5016933;28;20419;-79
2022/06/01 05:26:31;;;;;;;20.90;14.07;;;10.30;97.30;;;;;;5018085;28;20197;-79
2022/06/01 05:28:57;;;;;;;23.13;13.00;;;10.40;97.30;;;;;;5018687;28;20419;-79
2022/06/01 05:31:24;;;;;;;23.57;12.40;;;10.50;97.30;;;;;;5017701;28;20184;-79
2022/06/01 05:33:50;;;;;;;21.80;11.53;;;10.60;97.30;;;;;;5018113;28;20180;-80
2022/06/01 05:36:17;;;;;;;23.60;12.03;;;10.70;97.30;;;;;;5018483;28;20446;-79
2022/06/01 05:38:45;;;;;;;21.10;11.00;;;10.80;97.30;;;;;;5018260;28;20205;-79
2022/06/01 05:41:11;;;;;;;20.70;11.07;;;10.80;97.30;;;;;;5018489;28;21032;-79
2022/06/01 05:43:37;;;;;;;16.20;10.53;;;10.90;97.30;;;;;;5017698;28;20413;-79
2022/06/01 05:46:03;;;;;;;14.73;9.77;;;11.00;97.30;;;;;;5017476;28;20193;-79
2022/06/01 05:48:29;;;;;;;16.10;8.80;;;11.00;97.30;;;;;;5018399;28;20471;-79
2022/06/01 05:50:54;;;;;;;11.30;8.10;;;11.00;97.30;;;;;;5035011;28;20402;-79
2022/06/01 05:53:20;;;;;;;15.70;8.47;;;11.00;97.30;;;;;;5018667;28;20176;-80
2022/06/01 05:55:46;;;;;;;13.10;8.00;;;11.10;97.30;;;;;;5017907;28;20361;-79
2022/06/01 05:58:18;;;;;;;13.70;8.47;;;11.10;97.30;;;;;;5018534;28;20479;-79
2022/06/01 06:00:44;;;;;;;14.90;7.93;;;11.20;97.30;;;;;;5018481;28;20172;-79
2022/06/01 06:03:11;;;;;;;16.97;9.63;;;11.20;97.30;;;;;;5018055;28;20422;-80
2022/06/01 06:08:22;;;;;;;16.33;10.00;;;11.30;97.30;;;;;;5036105;28;20441;-79
2022/06/01 06:10:48;;;;;;;20.00;11.30;;;11.40;97.30;;;;;;5017956;28;20462;-79
2022/06/01 06:13:14;;;;;;;15.97;10.20;;;11.40;97.30;;;;;;5017822;28;20423;-79
2022/06/01 06:15:40;;;;;;;17.10;10.23;;;11.50;97.30;;;;;;5017459;28;20425;-80
2022/06/01 06:18:06;;;;;;;16.00;9.77;;;11.50;97.30;;;;;;5017774;28;20235;-80
2022/06/01 06:20:33;;;;;;;15.90;8.80;;;11.60;97.30;;;;;;5017585;28;20177;-79
2022/06/01 06:22:59;;;;;;;17.70;9.60;;;11.60;97.30;;;;;;5017861;28;20419;-79
2022/06/01 06:25:25;;;;;;;16.67;10.00;;;11.70;97.30;;;;;;5017948;28;20411;-79
2022/06/01 06:27:51;;;;;;;15.43;9.63;;;11.70;97.30;;;;;;5017227;28;20490;-79
2022/06/01 06:30:19;;;;;;;15.03;9.50;;;11.80;97.30;;;;;;5017689;28;20195;-80
2022/06/01 06:32:46;;;;;;;15.43;10.00;;;11.80;97.30;;;;;;5016458;28;20419;-79
2022/06/01 06:35:18;;;;;;;14.27;9.67;;;11.90;97.30;;;;;;5017940;28;20419;-79
2022/06/01 06:37:45;;;;;;;12.30;7.43;;;11.90;97.30;;;;;;5018049;28;20462;-80
2022/06/01 06:40:12;;;;;;;17.50;8.60;;;11.90;97.30;;;;;;5018079;28;20443;-79
2022/06/01 06:42:38;;;;;;;15.60;8.43;;;11.90;97.30;;;;;;5017316;28;20423;-79
2022/06/01 06:45:04;;;;;;;12.73;7.97;;;12.00;97.30;;;;;;5017009;28;20422;-79
2022/06/01 06:47:32;;;;;;;7.87;6.27;;;12.10;97.30;;;;;;5017323;28;20401;-79
2022/06/01 06:49:58;;;;;;;12.27;7.37;;;12.10;97.30;;;;;;5017885;28;20506;-80
2022/06/01 06:52:23;;;;;;;7.80;6.07;;;12.20;97.30;;;;;;5017807;28;20423;-79
2022/06/01 06:54:49;;;;;;;8.87;6.63;;;12.20;97.30;;;;;;5018029;28;20471;-79
2022/06/01 06:57:15;;;;;;;10.30;6.87;;;12.20;97.30;;;;;;5017840;28;20205;-80
2022/06/01 06:59:41;;;;;;;9.03;6.80;;;12.20;97.30;;;;;;5016595;28;20778;-79
2022/06/01 07:02:06;;;;;;;11.03;6.73;;;12.30;97.30;;;;;;5016391;28;20427;-80
2022/06/01 07:04:32;;;;;;;10.87;7.03;;;12.30;97.30;;;;;;5017342;28;20215;-80
2022/06/01 07:06:57;;;;;;;11.07;7.57;;;12.40;97.30;;;;;;5016101;28;20192;-79
2022/06/01 07:09:23;;;;;;;11.97;7.00;;;12.50;97.30;;;;;;5016443;28;20180;-80
2022/06/01 07:11:49;;;;;;;11.20;7.77;;;12.60;97.30;;;;;;5016842;28;20223;-80
2022/06/01 07:14:14;;;;;;;12.87;7.53;;;12.70;97.30;;;;;;5016814;28;20567;-80
2022/06/01 07:16:40;;;;;;;11.10;7.13;;;12.70;97.30;;;;;;5016537;28;20246;-80
2022/06/01 07:19:08;;;;;;;11.40;6.47;;;12.80;97.30;;;;;;5016618;28;20214;-80
2022/06/01 07:21:36;;;;;;;8.97;6.37;;;12.80;97.30;;;;;;5016339;28;20263;-79
2022/06/01 07:24:06;;;;;;;9.20;6.20;;;12.80;97.30;;;;;;5016298;28;20423;-83
2022/06/01 07:26:38;;;;;;;8.53;5.97;;;12.80;97.30;;;;;;5016900;28;20442;-79
2022/06/01 07:29:04;;;;;;;10.40;5.67;;;12.80;97.30;;;;;;5016831;28;20438;-80
2022/06/01 07:31:30;;;;;;;7.03;5.40;;;12.80;97.30;;;;;;5016250;28;20412;-80
2022/06/01 07:33:58;;;;;;;8.83;5.43;;;12.80;97.30;;;;;;5016108;28;20426;-80
2022/06/01 07:36:25;;;;;;;9.60;5.93;;;12.80;97.30;;;;;;5016118;28;20200;-80
2022/06/01 07:44:38;;;;;;;10.87;5.50;;;12.80;97.30;;;;;;5037888;28;20390;-79
2022/06/01 07:47:04;;;;;;;9.57;6.33;;;12.90;97.30;;;;;;5020803;28;20435;-79
2022/06/01 07:49:29;;;;;;;10.93;6.60;;;12.90;97.30;;;;;;5019529;28;20466;-80
2022/06/01 07:51:55;;;;;;;10.23;5.90;;;12.90;97.30;;;;;;5019999;28;20419;-80
2022/06/01 07:54:22;;;;;;;8.67;6.03;;;12.90;97.30;;;;;;5019427;28;20227;-80
2022/06/01 07:56:47;;;;;;;8.17;5.00;;;12.90;97.30;;;;;;5020349;28;20262;-80
2022/06/01 07:59:13;;;;;;;8.00;5.53;;;12.80;97.30;;;;;;5020862;28;20494;-80
2022/06/01 08:01:39;;;;;;;9.83;6.77;;;12.80;97.30;;;;;;5020429;28;20183;-80
2022/06/01 08:04:07;;;;;;;12.67;5.90;;;12.80;97.30;;;;;;5020074;28;20180;-79
2022/06/01 08:06:34;;;;;;;7.97;4.80;;;12.70;97.30;;;;;;5020271;28;20435;-80
2022/06/01 08:09:00;;;;;;;10.10;4.87;;;12.70;97.30;;;;;;5021446;28;20764;-79
2022/06/01 08:14:12;;;;;;;6.60;5.00;;;12.60;97.30;;;;;;5039569;28;20410;-80
2022/06/01 08:16:40;;;;;;;7.60;5.20;;;12.60;97.30;;;;;;5020991;28;20431;-80
2022/06/01 08:19:06;;;;;;;8.97;5.10;;;12.60;97.30;;;;;;5021206;28;20471;-80
2022/06/01 08:21:34;;;;;;;9.00;4.97;;;12.60;97.30;;;;;;5020981;28;20928;-80
2022/06/01 08:24:06;;;;;;;6.70;4.30;;;12.60;97.30;;;;;;5020243;28;20411;-80
2022/06/01 08:26:37;;;;;;;5.43;3.90;;;12.50;97.30;;;;;;5020596;28;20952;-80
2022/06/01 08:29:03;;;;;;;13.70;5.47;;;12.50;97.30;;;;;;5019516;28;21012;-79
2022/06/01 08:31:34;;;;;;;5.70;4.40;;;12.40;97.30;;;;;;5019244;28;20926;-79
2022/06/01 08:34:05;;;;;;;9.67;5.60;;;12.30;97.30;;;;;;5018751;28;20423;-79
2022/06/01 08:36:37;;;;;;;8.50;4.83;;;12.30;97.30;;;;;;5019455;28;20446;-79
2022/06/01 08:39:04;;;;;;;6.73;4.70;;;12.30;97.30;;;;;;5019797;28;20486;-82
2022/06/01 08:41:35;;;;;;;9.90;5.37;;;12.30;97.30;;;;;;5019373;28;20442;-82
2022/06/01 08:44:19;;;;;;;7.50;4.53;;;12.30;97.30;;;;;;5019516;28;20456;-82
2022/06/01 08:46:45;;;;;;;8.40;4.93;;;12.30;97.30;;;;;;5019850;28;20439;-82
2022/06/01 08:49:23;;;;;;;12.53;6.30;;;12.30;97.30;;;;;;5018989;28;20419;-82
2022/06/01 08:51:50;;;;;;;4.73;3.83;;;12.30;97.30;;;;;;5018582;28;20423;-81
2022/06/01 08:54:16;;;;;;;6.60;3.97;;;12.30;97.30;;;;;;5018464;28;20521;-83
2022/06/01 08:56:46;;;;;;;8.93;4.37;;;12.30;97.30;;;;;;5035809;28;20431;-82
2022/06/01 08:59:36;;;;;;;6.77;4.50;;;12.30;97.30;;;;;;5036383;28;20207;-82
2022/06/01 09:02:29;;;;;;;6.83;4.43;;;12.30;97.30;;;;;;5018765;28;20411;-82
2022/06/01 09:05:05;;;;;;;6.80;4.27;;;12.30;97.30;;;;;;5018140;28;20415;-82
2022/06/01 09:07:39;;;;;;;6.30;4.60;;;12.40;97.30;;;;;;5017999;28;20443;-82
2022/06/01 09:10:17;;;;;;;5.80;4.10;;;12.50;97.30;;;;;;5017890;28;20416;-82
2022/06/01 09:12:45;;;;;;;7.27;4.23;;;12.50;97.30;;;;;;5035183;28;20809;-82
2022/06/01 09:15:23;;;;;;;5.03;4.40;;;12.60;97.30;;;;;;5017387;28;20529;-82
2022/06/01 09:17:48;;;;;;;5.43;4.33;;;12.70;97.30;;;;;;5016860;28;21099;-82
2022/06/01 09:23:06;;;;;;;10.53;5.00;;;13.00;97.30;;;;;;5034867;28;20179;-82
2022/06/01 09:25:35;;;;;;;5.77;4.43;;;13.30;97.30;;;;;;5016969;28;20414;-82
2022/06/01 09:28:18;;;;;;;5.57;3.77;;;13.60;97.30;;;;;;5035429;28;20418;-82
2022/06/01 09:30:49;;;;;;;3.33;3.00;;;13.80;97.30;;;;;;5015789;28;20909;-82
2022/06/01 09:33:30;;;;;;;4.50;3.00;;;13.90;97.30;;;;;;5015365;28;21010;-83
2022/06/01 09:36:08;;;;;;;5.47;2.97;;;14.00;97.30;;;;;;5016058;28;20443;-84
2022/06/01 09:38:41;;;;;;;5.60;3.30;;;14.10;97.30;;;;;;5015880;28;20451;-83
2022/06/01 09:41:17;;;;;;;3.27;2.77;;;14.20;97.30;;;;;;5016392;28;20800;-83
2022/06/01 09:43:53;;;;;;;4.73;2.73;;;14.20;97.30;;;;;;5016411;28;20415;-82
2022/06/01 09:46:35;;;;;;;2.70;2.50;;;14.10;97.30;;;;;;5016029;28;20805;-83
2022/06/01 09:49:24;;;;;;;2.80;2.57;;;14.20;97.30;;;;;;5016708;28;20427;-82
2022/06/01 09:51:55;;;;;;;3.53;2.87;;;14.20;97.30;;;;;;5016365;28;20418;-83
2022/06/01 09:54:21;;;;;;;3.83;2.67;;;14.20;97.30;;;;;;5015327;28;20458;-83
2022/06/01 09:56:48;;;;;;;5.40;3.10;;;14.20;97.30;;;;;;5016029;28;21048;-83
2022/06/01 10:08:14;;;;;;;3.10;2.77;;;14.30;97.30;;;;;;5034290;28;20522;-83
2022/06/01 10:10:55;;;;;;;3.90;2.53;;;14.40;97.30;;;;;;5017498;28;20472;-82
2022/06/01 10:13:28;;;;;;;3.20;2.70;;;14.60;97.30;;;;;;5017745;28;20976;-82
2022/06/01 10:15:58;;;;;;;3.70;2.90;;;14.80;97.30;;;;;;5017186;28;20919;-82
2022/06/01 10:18:29;;;;;;;4.73;3.00;;;15.00;97.30;;;;;;5017961;28;20831;-82
2022/06/01 10:21:00;;;;;;;2.93;2.43;;;15.20;97.30;;;;;;5018489;28;20407;-82
2022/06/01 10:23:34;;;;;;;2.83;2.63;;;15.30;97.30;;;;;;5017488;28;20419;-82
2022/06/01 10:26:33;;;;;;;3.97;2.57;;;15.30;97.30;;;;;;5017031;28;20431;-82
2022/06/01 10:29:17;;;;;;;2.70;2.20;;;15.40;97.30;;;;;;5017868;28;20423;-82
2022/06/01 10:32:10;;;;;;;3.83;2.50;;;15.50;97.30;;;;;;5017284;28;20916;-82
2022/06/01 10:34:53;;;;;;;2.70;2.30;;;15.80;97.30;;;;;;5012555;28;20550;-82
2022/06/01 10:37:36;;;;;;;4.70;2.77;;;16.10;97.30;;;;;;5009305;28;20444;-83
2022/06/01 10:40:19;;;;;;;3.03;2.40;;;16.30;97.30;;;;;;4998790;28;20420;-82
2022/06/01 10:45:47;;;;;;;3.40;2.23;;;16.80;97.30;;;;;;5015242;28;20407;-83
2022/06/01 10:48:23;;;;;;;3.30;2.40;;;17.20;97.30;;;;;;4997273;28;20451;-83
2022/06/01 10:51:15;;;;;;;3.00;2.20;;;17.20;97.30;;;;;;4998200;28;20419;-82
2022/06/01 10:54:22;;;;;;;2.67;1.77;;;17.20;96.60;;;;;;4998570;28;20422;-82
2022/06/01 10:56:48;;;;;;;3.10;2.47;;;17.30;97.30;;;;;;4969492;28;20464;-82
2022/06/01 10:59:16;;;;;;;2.17;1.90;;;17.30;97.30;;;;;;4998639;28;20460;-82
2022/06/01 11:02:20;;;;;;;2.00;1.90;;;17.40;97.30;;;;;;5016258;28;20423;-82
2022/06/01 11:05:13;;;;;;;1.70;1.60;;;17.40;96.00;;;;;;4998283;28;20538;-82
2022/06/01 11:08:17;;;;;;;2.33;1.70;;;17.60;95.10;;;;;;4996319;28;20941;-84
2022/06/01 11:11:15;;;;;;;2.47;1.47;;;17.80;91.40;;;;;;5015926;28;20438;-83
2022/06/01 11:14:22;;;;;;;2.60;1.77;;;18.00;92.70;;;;;;4998136;28;20510;-82
2022/06/01 11:17:01;;;;;;;2.20;1.70;;;18.20;89.60;;;;;;4998215;28;20462;-82
2022/06/01 11:20:12;;;;;;;2.40;1.70;;;18.40;90.10;;;;;;4999510;28;20767;-82
2022/06/01 11:22:49;;;;;;;2.97;1.33;;;18.60;89.70;;;;;;5002952;28;20832;-83
2022/06/01 11:25:32;;;;;;;1.97;1.30;;;18.80;89.00;;;;;;5001709;28;20818;-82
2022/06/01 11:28:07;;;;;;;4.10;2.10;;;19.00;89.60;;;;;;5001895;28;20412;-81
2022/06/01 11:31:09;;;;;;;1.53;1.50;;;19.10;87.90;;;;;;5001385;28;20427;-83
2022/06/01 11:33:42;;;;;;;2.70;1.50;;;19.30;87.30;;;;;;4984844;28;20423;-82
2022/06/01 11:36:19;;;;;;;1.20;1.13;;;19.60;84.80;;;;;;5000868;28;20438;-81
2022/06/01 11:38:50;;;;;;;1.77;1.40;;;19.70;85.10;;;;;;5016083;28;20459;-83
2022/06/01 11:41:31;;;;;;;1.47;1.30;;;19.70;83.00;;;;;;5002346;28;20462;-81
2022/06/01 11:44:00;;;;;;;1.20;1.13;;;19.60;84.70;;;;;;5003510;28;20484;-83
2022/06/01 11:46:37;;;;;;;1.63;1.37;;;19.40;83.50;;;;;;5021035;28;20424;-82
2022/06/01 11:49:26;;;;;;;1.20;1.10;;;19.30;84.00;;;;;;5005607;28;20477;-82
2022/06/01 11:51:51;;;;;;;1.77;1.10;;;19.30;84.50;;;;;;5006074;28;20415;-81
2022/06/01 11:54:34;;;;;;;1.47;1.13;;;19.40;81.90;;;;;;5005945;28;20502;-81
2022/06/01 11:57:36;;;;;;;1.37;1.30;;;19.50;81.80;;;;;;5005389;28;20204;-82
2022/06/01 12:00:15;;;;;;;2.17;1.43;;;19.60;82.20;;;;;;5004884;28;20470;-81
2022/06/01 12:02:41;;;;;;;2.50;1.33;;;19.80;83.90;;;;;;5022755;28;20688;-82
2022/06/01 12:05:12;;;;;;;7.70;3.90;;;20.00;82.10;;;;;;5004551;28;20423;-82
2022/06/01 12:07:49;;;;;;;4.53;1.70;;;20.20;82.90;;;;;;5003904;28;20223;-82
2022/06/01 12:10:22;;;;;;;5.63;1.50;;;20.30;80.80;;;;;;5003481;28;20446;-82
2022/06/01 12:12:59;;;;;;;5.43;1.60;;;20.00;81.60;;;;;;5005250;28;20423;-83
2022/06/01 12:15:34;;;;;;;1.60;1.50;;;19.90;83.30;;;;;;5006429;28;20442;-82
2022/06/01 12:18:16;;;;;;;3.83;1.50;;;20.00;83.50;;;;;;5021430;28;20458;-82
2022/06/01 12:20:44;;;;;;;1.50;1.40;;;20.00;81.90;;;;;;5002455;28;20424;-81
2022/06/01 12:29:02;;;;;;;1.40;1.30;;;20.20;84.60;;;;;;5020899;28;20419;-82
2022/06/01 12:31:32;;;;;;;4.10;1.60;;;20.60;79.40;;;;;;5003871;28;20485;-81
2022/06/01 12:34:03;;;;;;;4.00;1.30;;;20.80;79.30;;;;;;5019438;28;20412;-82
2022/06/01 12:36:48;;;;;;;4.27;1.53;;;20.90;77.00;;;;;;5005651;28;20464;-82
2022/06/01 12:39:23;;;;;;;1.20;1.20;;;20.90;77.40;;;;;;5024842;28;20474;-82
2022/06/01 12:41:51;;;;;;;1.73;1.50;;;20.80;78.10;;;;;;5022987;28;20464;-82
2022/06/01 12:44:19;;;;;;;1.70;1.47;;;20.90;78.80;;;;;;5020534;28;20420;-83
2022/06/01 12:46:51;;;;;;;1.97;1.40;;;21.10;75.80;;;;;;5022957;28;20485;-83
2022/06/01 12:49:36;;;;;;;2.10;1.60;;;21.20;75.00;;;;;;5021273;28;20426;-82
2022/06/01 12:52:07;;;;;;;2.37;1.50;;;21.30;74.40;;;;;;5019043;28;20927;-82
2022/06/01 12:54:52;;;;;;;1.80;1.70;;;21.20;73.90;;;;;;5022343;28;20501;-81
2022/06/01 12:57:34;;;;;;;2.43;1.40;;;21.30;75.60;;;;;;5020584;28;20439;-82
2022/06/01 13:00:08;;;;;;;2.83;1.33;;;21.40;74.40;;;;;;5019263;28;20428;-82
2022/06/01 13:02:38;;;;;;;3.20;1.27;;;21.50;75.70;;;;;;5020445;28;20473;-85
2022/06/01 13:05:07;;;;;;;1.60;1.50;;;21.60;75.70;;;;;;5021688;28;20943;-81
2022/06/01 13:07:40;;;;;;;2.17;1.90;;;21.70;76.00;;;;;;5036152;28;20511;-86
2022/06/01 13:10:18;;;;;;;2.50;1.77;;;21.90;73.70;;;;;;5020149;28;20411;-81
2022/06/01 13:12:44;;;;;;;1.57;1.57;;;21.90;72.50;;;;;;5021738;28;20417;-81
2022/06/01 13:15:18;;;;;;;2.30;1.60;;;21.70;73.10;;;;;;5022923;28;20439;-82
2022/06/01 13:17:45;;;;;;;4.33;1.60;;;21.40;74.30;;;;;;5019741;28;20230;-82
2022/06/01 13:20:11;;;;;;;1.70;1.40;;;21.10;74.60;;;;;;5020306;28;20767;-83
2022/06/01 13:22:42;;;;;;;5.40;1.60;;;20.90;73.10;;;;;;5020337;28;20426;-81
2022/06/01 13:25:25;;;;;;;3.13;1.50;;;20.80;73.90;;;;;;5020445;28;20187;-82
2022/06/01 13:27:51;;;;;;;1.33;1.30;;;20.90;74.90;;;;;;5021036;28;20416;-81
2022/06/01 13:30:17;;;;;;;4.73;1.80;;;21.20;74.80;;;;;;5024724;28;20505;-82
2022/06/01 13:32:47;;;;;;;1.13;1.13;;;21.30;74.60;;;;;;5020214;28;20415;-84
2022/06/01 13:35:30;;;;;;;1.50;1.30;;;21.30;72.90;;;;;;5020201;28;20426;-82
2022/06/01 13:37:58;;;;;;;1.40;1.40;;;21.10;71.80;;;;;;5017747;28;20481;-82
2022/06/01 13:40:33;;;;;;;1.63;1.50;;;20.80;71.40;;;;;;5019156;28;20891;-81
2022/06/01 13:43:03;;;;;;;2.40;1.37;;;20.80;73.90;;;;;;5022220;28;20423;-82